Terminal Aerodrome Forecast
Issued by NWS

Home | Current Version | Previous Version | Text Only | Print | Product List | Glossary On
Versions: 1 2 3 4 5 6 7 8 9 10 11 12 13 14 15 16 17 18
226
FTUS46 KMFR 221730
TAFOTH
TAF
KOTH 221730Z 2218/2318 35011KT P6SM SKC
     FM222000 35018G30KT P6SM SKC
     FM230400 36011KT P6SM SKC
     FM230800 VRB03KT P6SM SKC
     FM231700 33008KT P6SM SKC=

USA.gov is the U.S. government's official web portal to all federal, state and local government web resources and services.